createdAt,value
2023-02-13T00:00:48.122Z,969.74
2023-02-13T00:03:14.594Z,969.83
2023-02-13T00:05:40.834Z,969.83
2023-02-13T00:08:07.239Z,969.80
2023-02-13T00:10:33.595Z,969.79
2023-02-13T00:12:59.920Z,969.78
2023-02-13T00:15:26.328Z,969.71
2023-02-13T00:17:52.653Z,969.79
2023-02-13T00:20:19.009Z,969.91
2023-02-13T00:22:45.477Z,969.88
2023-02-13T00:25:11.792Z,969.82
2023-02-13T00:27:38.173Z,969.88
2023-02-13T00:30:04.503Z,969.89
2023-02-13T00:32:30.876Z,969.83
2023-02-13T00:34:57.305Z,969.89
2023-02-13T00:37:23.597Z,969.92
2023-02-13T00:39:49.934Z,969.86
2023-02-13T00:42:16.307Z,969.96
2023-02-13T00:44:42.625Z,969.96
2023-02-13T00:47:09.004Z,969.93
2023-02-13T00:49:35.355Z,969.88
2023-02-13T00:52:01.756Z,969.91
2023-02-13T00:54:28.071Z,969.99
2023-02-13T00:56:54.511Z,970.02
2023-02-13T00:59:20.793Z,970.06
2023-02-13T01:01:47.245Z,970.11
2023-02-13T01:04:13.537Z,970.04
2023-02-13T01:06:39.907Z,970.05
2023-02-13T01:09:06.309Z,970.05
2023-02-13T01:11:32.624Z,970.01
2023-02-13T01:13:58.981Z,969.96
2023-02-13T01:16:25.442Z,969.96
2023-02-13T01:18:51.742Z,969.98
2023-02-13T01:21:18.110Z,970.03
2023-02-13T01:23:44.443Z,970.07
2023-02-13T01:26:10.798Z,970.13
2023-02-13T01:28:37.272Z,970.10
2023-02-13T01:31:03.739Z,970.15
2023-02-13T01:33:29.921Z,970.14
2023-02-13T01:35:56.359Z,970.13
2023-02-13T01:38:22.687Z,970.13
2023-02-13T01:40:49.053Z,970.27
2023-02-13T01:43:15.409Z,970.20
2023-02-13T01:45:41.781Z,970.21
2023-02-13T01:48:08.133Z,970.25
2023-02-13T01:50:34.583Z,970.29
2023-02-13T01:53:00.932Z,970.24
2023-02-13T01:55:27.306Z,970.26
2023-02-13T01:57:53.664Z,970.33
2023-02-13T02:00:19.997Z,970.23
2023-02-13T02:02:46.436Z,970.24
2023-02-13T02:05:12.696Z,970.21
2023-02-13T02:07:39.101Z,970.25
2023-02-13T02:10:05.430Z,970.28
2023-02-13T02:12:31.791Z,970.16
2023-02-13T02:14:58.172Z,970.20
2023-02-13T02:17:24.531Z,970.21
2023-02-13T02:19:50.903Z,970.08
2023-02-13T02:22:17.221Z,970.09
2023-02-13T02:24:43.598Z,970.12
2023-02-13T02:27:09.997Z,970.17
2023-02-13T02:29:36.319Z,970.12
2023-02-13T02:32:02.685Z,970.07
2023-02-13T02:34:29.068Z,970.18
2023-02-13T02:36:55.387Z,970.20
2023-02-13T02:39:21.800Z,970.24
2023-02-13T02:41:48.132Z,970.26
2023-02-13T02:44:14.501Z,970.29
2023-02-13T02:46:40.925Z,970.37
2023-02-13T02:49:07.283Z,970.32
2023-02-13T02:51:33.639Z,970.48
2023-02-13T02:53:59.981Z,970.47
2023-02-13T02:56:26.357Z,970.54
2023-02-13T02:58:52.703Z,970.54
2023-02-13T03:01:19.182Z,970.56
2023-02-13T03:03:45.483Z,970.56
2023-02-13T03:06:11.780Z,970.48
2023-02-13T03:08:38.210Z,970.46
2023-02-13T03:11:04.558Z,970.48
2023-02-13T03:13:31.044Z,970.47
2023-02-13T03:15:57.335Z,970.47
2023-02-13T03:18:23.681Z,970.49
2023-02-13T03:20:50.005Z,970.53
2023-02-13T03:23:16.474Z,970.53
2023-02-13T03:25:42.762Z,970.52
2023-02-13T03:28:09.163Z,970.49
2023-02-13T03:30:35.523Z,970.57
2023-02-13T03:33:01.884Z,970.50
2023-02-13T03:35:28.312Z,970.56
2023-02-13T03:37:54.614Z,970.50
2023-02-13T03:40:20.983Z,970.52
2023-02-13T03:42:47.343Z,970.53
2023-02-13T03:45:13.680Z,970.50
2023-02-13T03:47:40.110Z,970.51
2023-02-13T03:50:06.487Z,970.50
2023-02-13T03:52:32.813Z,970.55
2023-02-13T03:54:59.184Z,970.59
2023-02-13T03:57:25.580Z,970.53
2023-02-13T03:59:51.910Z,970.52
2023-02-13T04:02:18.342Z,970.51
2023-02-13T04:04:44.624Z,970.55
2023-02-13T04:07:10.942Z,970.52
2023-02-13T04:09:37.297Z,970.51
2023-02-13T04:12:03.611Z,970.47
2023-02-13T04:14:29.951Z,970.47
2023-02-13T04:16:56.311Z,970.50
2023-02-13T04:19:22.636Z,970.54
2023-02-13T04:21:49.001Z,970.58
2023-02-13T04:24:15.386Z,970.61
2023-02-13T04:26:41.718Z,970.65
2023-02-13T04:29:08.057Z,970.62
2023-02-13T04:31:34.515Z,970.63
2023-02-13T04:34:00.868Z,970.65
2023-02-13T04:36:27.222Z,970.58
2023-02-13T04:38:53.598Z,970.52
2023-02-13T04:41:19.969Z,970.51
2023-02-13T04:43:46.310Z,970.53
2023-02-13T04:46:14.712Z,970.59
2023-02-13T04:48:39.102Z,970.58
2023-02-13T04:51:05.413Z,970.60
2023-02-13T04:53:31.752Z,970.70
2023-02-13T04:55:58.106Z,970.73
2023-02-13T04:58:24.549Z,970.84
2023-02-13T05:00:50.859Z,970.78
2023-02-13T05:03:17.213Z,970.72
2023-02-13T05:05:43.605Z,970.80
2023-02-13T05:08:09.940Z,970.82
2023-02-13T05:10:36.271Z,970.86
2023-02-13T05:13:02.648Z,970.86
2023-02-13T05:15:29.026Z,970.84
2023-02-13T05:17:55.337Z,970.90
2023-02-13T05:20:21.719Z,970.88
2023-02-13T05:22:48.101Z,970.94
2023-02-13T05:25:14.417Z,970.95
2023-02-13T05:27:40.842Z,970.92
2023-02-13T05:30:07.213Z,970.92
2023-02-13T05:32:33.643Z,970.92
2023-02-13T05:34:59.943Z,970.92
2023-02-13T05:37:26.318Z,970.94
2023-02-13T05:39:52.657Z,971.04
2023-02-13T05:42:19.117Z,971.07
2023-02-13T05:44:45.496Z,971.04
2023-02-13T05:47:11.861Z,971.06
2023-02-13T05:49:38.225Z,971.09
2023-02-13T05:52:04.561Z,971.11
2023-02-13T05:54:30.877Z,971.10
2023-02-13T05:56:57.312Z,971.12
2023-02-13T05:59:24.094Z,971.14
2023-02-13T06:01:50.018Z,971.14
2023-02-13T06:04:16.432Z,971.05
2023-02-13T06:06:42.701Z,971.16
2023-02-13T06:09:09.070Z,971.20
2023-02-13T06:11:35.449Z,971.21
2023-02-13T06:14:01.822Z,971.22
2023-02-13T06:16:28.244Z,971.25
2023-02-13T06:18:54.576Z,971.25
2023-02-13T06:21:22.515Z,971.33
2023-02-13T06:23:47.241Z,971.30
2023-02-13T06:26:13.594Z,971.27
2023-02-13T06:28:40.047Z,971.36
2023-02-13T06:31:06.440Z,971.31
2023-02-13T06:33:32.717Z,971.33
2023-02-13T06:35:59.065Z,971.35
2023-02-13T06:38:25.715Z,971.34
2023-02-13T06:40:52.147Z,971.34
2023-02-13T06:43:18.392Z,971.40
2023-02-13T06:45:45.029Z,971.45
2023-02-13T06:48:11.386Z,971.44
2023-02-13T06:50:37.760Z,971.43
2023-02-13T06:53:04.191Z,971.36
2023-02-13T06:55:30.542Z,971.40
2023-02-13T06:57:56.887Z,971.33
2023-02-13T07:00:24.290Z,971.34
2023-02-13T07:02:49.997Z,971.36
2023-02-13T07:05:16.287Z,971.34
2023-02-13T07:07:42.632Z,971.32
2023-02-13T07:10:10.035Z,971.30
2023-02-13T07:12:36.352Z,971.33
2023-02-13T07:15:02.760Z,971.34
2023-02-13T07:17:29.117Z,971.42
2023-02-13T07:19:55.525Z,971.38
2023-02-13T07:22:21.926Z,971.42
2023-02-13T07:24:48.259Z,971.46
2023-02-13T07:27:14.581Z,971.42
2023-02-13T07:29:40.996Z,971.45
2023-02-13T07:32:07.425Z,971.47
2023-02-13T07:34:36.294Z,971.44
2023-02-13T07:37:02.620Z,971.33
2023-02-13T07:39:28.995Z,971.36
2023-02-13T07:41:55.357Z,971.41
2023-02-13T07:44:21.728Z,971.33
2023-02-13T07:46:48.135Z,971.40
2023-02-13T07:49:14.433Z,971.39
2023-02-13T07:51:40.767Z,971.40
2023-02-13T07:54:07.160Z,971.42
2023-02-13T07:56:33.492Z,971.42
2023-02-13T07:58:59.854Z,971.41
2023-02-13T08:01:26.256Z,971.42
2023-02-13T08:03:52.687Z,971.42
2023-02-13T08:06:19.163Z,971.42
2023-02-13T08:08:45.534Z,971.42
2023-02-13T08:11:12.277Z,971.39
2023-02-13T08:13:38.675Z,971.37
2023-02-13T08:16:05.035Z,971.34
2023-02-13T08:18:31.422Z,971.23
2023-02-13T08:20:57.872Z,971.36
2023-02-13T08:23:24.218Z,971.35
2023-02-13T08:25:50.584Z,971.39
2023-02-13T08:28:16.991Z,971.39
2023-02-13T08:30:43.329Z,971.39
2023-02-13T08:33:09.675Z,971.39
2023-02-13T08:35:36.084Z,971.31
2023-02-13T08:38:02.438Z,971.33
2023-02-13T08:40:28.766Z,971.40
2023-02-13T08:42:56.947Z,971.42
2023-02-13T08:45:21.524Z,971.40
2023-02-13T08:47:47.924Z,971.33
2023-02-13T08:50:14.285Z,971.37
2023-02-13T08:52:40.654Z,971.33
2023-02-13T08:55:07.232Z,971.32
2023-02-13T08:57:33.611Z,971.36
2023-02-13T08:59:59.966Z,971.31
2023-02-13T09:02:26.516Z,971.33
2023-02-13T09:04:52.720Z,971.32
2023-02-13T09:07:19.098Z,971.31
2023-02-13T09:09:45.732Z,971.35
2023-02-13T09:12:12.149Z,971.31
2023-02-13T09:14:38.478Z,971.30
2023-02-13T09:17:04.877Z,971.29
2023-02-13T09:19:31.277Z,971.32
2023-02-13T09:21:57.611Z,971.29
2023-02-13T09:24:23.963Z,971.30
2023-02-13T09:26:50.349Z,971.31
2023-02-13T09:29:16.731Z,971.22
2023-02-13T09:31:43.231Z,971.20
2023-02-13T09:34:09.666Z,971.18
2023-02-13T09:36:36.022Z,971.14
2023-02-13T09:39:02.384Z,971.13
2023-02-13T09:41:28.740Z,971.11
2023-02-13T09:43:55.186Z,970.97
2023-02-13T09:46:21.563Z,971.04
2023-02-13T09:48:47.903Z,971.02
2023-02-13T09:51:14.572Z,970.95
2023-02-13T09:53:40.921Z,970.92
2023-02-13T09:56:07.307Z,970.88
2023-02-13T09:58:33.880Z,970.87
2023-02-13T10:01:00.264Z,970.82
2023-02-13T10:03:26.817Z,970.79
2023-02-13T10:05:55.207Z,970.82
2023-02-13T10:08:19.632Z,970.74
2023-02-13T10:10:45.964Z,970.66
2023-02-13T10:13:12.305Z,970.75
2023-02-13T10:15:38.814Z,970.60
2023-02-13T10:18:05.006Z,970.68
2023-02-13T10:20:31.407Z,970.54
2023-02-13T10:22:57.764Z,970.53
2023-02-13T10:25:24.459Z,970.46
2023-02-13T10:27:50.794Z,970.43
2023-02-13T10:30:17.176Z,970.41
2023-02-13T10:32:43.473Z,970.34
2023-02-13T10:35:09.927Z,970.36
2023-02-13T10:37:36.248Z,970.34
2023-02-13T10:40:02.596Z,970.29
2023-02-13T10:42:28.936Z,970.25
2023-02-13T10:44:55.300Z,970.13
2023-02-13T10:47:21.615Z,970.02
2023-02-13T10:49:48.187Z,970.04
2023-02-13T10:52:14.549Z,969.99
2023-02-13T10:54:40.879Z,970.07
2023-02-13T10:57:07.450Z,970.02
2023-02-13T10:59:33.788Z,969.98
2023-02-13T11:02:00.299Z,969.97
2023-02-13T11:04:26.662Z,969.89
2023-02-13T11:06:53.190Z,969.81
2023-02-13T11:09:19.688Z,969.78
2023-02-13T11:11:46.053Z,969.74
2023-02-13T11:14:12.709Z,969.72
2023-02-13T11:16:39.111Z,969.73
2023-02-13T11:19:05.454Z,969.68
2023-02-13T11:21:31.778Z,969.55
2023-02-13T11:23:58.236Z,969.54
2023-02-13T11:26:24.619Z,969.52
2023-02-13T11:28:51.010Z,969.46
2023-02-13T11:31:17.388Z,969.37
2023-02-13T11:33:43.666Z,969.27
2023-02-13T11:36:10.013Z,969.29
2023-02-13T11:38:36.382Z,969.24
2023-02-13T11:41:02.920Z,969.15
2023-02-13T11:43:29.711Z,969.16
2023-02-13T11:45:56.072Z,969.11
2023-02-13T11:48:22.581Z,969.06
2023-02-13T11:50:48.945Z,968.96
2023-02-13T11:53:15.316Z,968.92
2023-02-13T11:55:41.683Z,968.79
2023-02-13T11:58:08.032Z,968.83
2023-02-13T12:00:34.669Z,968.72
2023-02-13T12:03:01.279Z,968.72
2023-02-13T12:05:27.556Z,968.64
2023-02-13T12:07:53.976Z,968.68
2023-02-13T12:10:20.510Z,968.56
2023-02-13T12:12:46.885Z,968.57
2023-02-13T12:15:13.199Z,968.64
2023-02-13T12:17:39.620Z,968.58
2023-02-13T12:20:06.037Z,968.56
2023-02-13T12:22:34.667Z,968.56
2023-02-13T12:24:58.860Z,968.55
2023-02-13T12:27:25.267Z,968.52
2023-02-13T12:29:51.580Z,968.53
2023-02-13T12:32:17.959Z,968.49
2023-02-13T12:34:44.417Z,968.49
2023-02-13T12:37:10.794Z,968.49
2023-02-13T12:39:37.157Z,968.47
2023-02-13T12:42:03.543Z,968.41
2023-02-13T12:44:29.910Z,968.34
2023-02-13T12:46:56.239Z,968.32
2023-02-13T12:49:22.577Z,968.26
2023-02-13T12:51:48.935Z,968.24
2023-02-13T12:54:15.309Z,968.24
2023-02-13T12:56:41.734Z,968.19
2023-02-13T12:59:08.039Z,968.22
2023-02-13T13:01:34.406Z,968.13
2023-02-13T13:04:00.727Z,968.16
2023-02-13T13:06:27.210Z,968.10
2023-02-13T13:08:53.565Z,968.13
2023-02-13T13:11:19.928Z,968.02
2023-02-13T13:13:46.685Z,968.00
2023-02-13T13:16:14.192Z,967.96
2023-02-13T13:18:39.450Z,967.98
2023-02-13T13:21:05.787Z,967.93
2023-02-13T13:23:34.573Z,967.91
2023-02-13T13:26:00.953Z,967.86
2023-02-13T13:28:27.623Z,967.87
2023-02-13T13:30:54.079Z,967.86
2023-02-13T13:33:20.309Z,967.79
2023-02-13T13:35:46.981Z,967.80
2023-02-13T13:38:13.345Z,967.78
2023-02-13T13:40:39.681Z,967.74
2023-02-13T13:43:06.243Z,967.75
2023-02-13T13:45:32.587Z,967.81
2023-02-13T13:47:59.022Z,967.79
2023-02-13T13:50:25.337Z,967.76
2023-02-13T13:52:51.702Z,967.73
2023-02-13T13:55:18.081Z,967.73
2023-02-13T13:57:44.496Z,967.77
2023-02-13T14:00:13.936Z,967.78
2023-02-13T14:02:37.202Z,967.69
2023-02-13T14:05:03.768Z,967.74
2023-02-13T14:07:30.096Z,967.73
2023-02-13T14:09:56.604Z,967.78
2023-02-13T14:12:22.975Z,967.70
2023-02-13T14:14:49.312Z,967.73
2023-02-13T14:17:15.823Z,967.64
2023-02-13T14:19:42.218Z,967.64
2023-02-13T14:22:08.636Z,967.61
2023-02-13T14:24:34.962Z,967.58
2023-02-13T14:27:06.229Z,967.47
2023-02-13T14:29:27.726Z,967.47
2023-02-13T14:31:54.576Z,967.53
2023-02-13T14:34:20.832Z,967.42
2023-02-13T14:36:47.245Z,967.46
2023-02-13T14:39:13.595Z,967.47
2023-02-13T14:41:41.355Z,967.46
2023-02-13T14:44:06.437Z,967.42
2023-02-13T14:46:33.063Z,967.38
2023-02-13T14:48:59.384Z,967.43
2023-02-13T14:51:25.757Z,967.42
2023-02-13T14:53:52.607Z,967.38
2023-02-13T14:56:19.353Z,967.41
2023-02-13T14:58:46.249Z,967.40
2023-02-13T15:01:12.943Z,967.37
2023-02-13T15:03:41.334Z,967.33
2023-02-13T15:06:08.052Z,967.39
2023-02-13T15:08:34.801Z,967.40
2023-02-13T15:11:01.753Z,967.38
2023-02-13T15:13:29.461Z,967.38
2023-02-13T15:15:55.442Z,967.38
2023-02-13T15:18:22.169Z,967.33
2023-02-13T15:20:48.550Z,967.44
2023-02-13T15:23:14.868Z,967.41
2023-02-13T15:25:41.247Z,967.44
2023-02-13T15:28:07.589Z,967.44
2023-02-13T15:30:33.943Z,967.42
2023-02-13T15:33:00.271Z,967.47
2023-02-13T15:35:26.647Z,967.41
2023-02-13T15:37:53.023Z,967.51
2023-02-13T15:40:19.413Z,967.51
2023-02-13T15:42:46.045Z,967.49
2023-02-13T15:45:12.384Z,967.54
2023-02-13T15:47:38.717Z,967.55
2023-02-13T15:50:05.113Z,967.60
2023-02-13T15:52:31.440Z,967.61
2023-02-13T15:54:58.039Z,967.62
2023-02-13T15:57:24.497Z,967.60
2023-02-13T15:59:50.784Z,967.57
2023-02-13T16:02:17.344Z,967.62
2023-02-13T16:04:43.721Z,967.62
2023-02-13T16:07:10.074Z,967.60
2023-02-13T16:09:36.467Z,967.64
2023-02-13T16:12:02.780Z,967.65
2023-02-13T16:14:29.168Z,967.64
2023-02-13T16:16:55.534Z,967.66
2023-02-13T16:19:21.857Z,967.68
2023-02-13T16:21:48.218Z,967.80
2023-02-13T16:24:14.593Z,967.78
2023-02-13T16:26:40.925Z,967.86
2023-02-13T16:29:07.374Z,967.75
2023-02-13T16:31:33.824Z,967.78
2023-02-13T16:34:00.128Z,967.74
2023-02-13T16:36:26.524Z,967.78
2023-02-13T16:38:52.876Z,967.81
2023-02-13T16:41:19.299Z,967.87
2023-02-13T16:43:45.714Z,967.78
2023-02-13T16:46:12.452Z,967.78
2023-02-13T16:48:38.875Z,967.76
2023-02-13T16:51:05.394Z,967.71
2023-02-13T16:53:34.011Z,967.79
2023-02-13T16:55:58.158Z,967.75
2023-02-13T16:58:24.557Z,967.80
2023-02-13T17:00:50.977Z,967.69
2023-02-13T17:03:17.316Z,967.70
2023-02-13T17:05:43.676Z,967.69
2023-02-13T17:08:10.052Z,967.69
2023-02-13T17:10:36.384Z,967.64
2023-02-13T17:13:02.765Z,967.69
2023-02-13T17:15:29.123Z,967.78
2023-02-13T17:17:55.468Z,967.72
2023-02-13T17:20:23.036Z,967.75
2023-02-13T17:22:49.347Z,967.73
2023-02-13T17:25:15.815Z,967.78
2023-02-13T17:27:42.343Z,967.75
2023-02-13T17:30:08.698Z,967.76
2023-02-13T17:32:35.015Z,967.81
2023-02-13T17:35:01.438Z,967.73
2023-02-13T17:37:27.784Z,967.74
2023-02-13T17:39:54.172Z,967.78
2023-02-13T17:42:20.618Z,967.74
2023-02-13T17:44:46.969Z,967.72
2023-02-13T17:47:13.359Z,967.70
2023-02-13T17:49:39.943Z,967.72
2023-02-13T17:52:06.384Z,967.68
2023-02-13T17:54:32.746Z,967.63
2023-02-13T17:56:59.170Z,967.62
2023-02-13T17:59:25.847Z,967.60
2023-02-13T18:01:51.897Z,967.53
2023-02-13T18:04:18.256Z,967.58
2023-02-13T18:06:44.626Z,967.57
2023-02-13T18:09:10.974Z,967.52
2023-02-13T18:11:37.335Z,967.54
2023-02-13T18:14:03.633Z,967.63
2023-02-13T18:16:30.042Z,967.50
2023-02-13T18:18:56.596Z,967.58
2023-02-13T18:21:23.012Z,967.52
2023-02-13T18:23:49.338Z,967.55
2023-02-13T18:26:16.120Z,967.60
2023-02-13T18:28:42.434Z,967.61
2023-02-13T18:31:09.010Z,967.65
2023-02-13T18:33:35.276Z,967.57
2023-02-13T18:36:02.760Z,967.64
2023-02-13T18:38:29.099Z,967.57
2023-02-13T18:40:55.553Z,967.63
2023-02-13T18:43:22.298Z,967.63
2023-02-13T18:45:48.723Z,967.61
2023-02-13T18:48:15.023Z,967.58
2023-02-13T18:50:41.784Z,967.63
2023-02-13T18:53:08.319Z,967.58
2023-02-13T18:55:34.685Z,967.57
2023-02-13T18:58:01.184Z,967.64
2023-02-13T19:00:27.637Z,967.63
2023-02-13T19:02:54.108Z,967.69
2023-02-13T19:05:20.651Z,967.76
2023-02-13T19:07:48.279Z,967.75
2023-02-13T19:10:14.648Z,967.73
2023-02-13T19:12:40.965Z,967.78
2023-02-13T19:15:07.356Z,967.79
2023-02-13T19:17:33.797Z,967.68
2023-02-13T19:20:00.212Z,967.65
2023-02-13T19:22:26.578Z,967.73
2023-02-13T19:24:55.153Z,967.72
2023-02-13T19:27:21.737Z,967.72
2023-02-13T19:29:48.111Z,967.71
2023-02-13T19:32:14.478Z,967.70
2023-02-13T19:34:40.864Z,967.68
2023-02-13T19:37:07.340Z,967.68
2023-02-13T19:39:33.681Z,967.70
2023-02-13T19:42:00.008Z,967.63
2023-02-13T19:44:26.397Z,967.65
2023-02-13T19:46:52.766Z,967.67
2023-02-13T19:49:19.139Z,967.64
2023-02-13T19:51:45.440Z,967.63
2023-02-13T19:54:11.898Z,967.61
2023-02-13T19:56:38.857Z,967.50
2023-02-13T19:59:05.220Z,967.49
2023-02-13T20:01:31.620Z,967.52
2023-02-13T20:03:58.445Z,967.49
2023-02-13T20:06:24.863Z,967.54
2023-02-13T20:08:51.263Z,967.62
2023-02-13T20:11:17.836Z,967.50
2023-02-13T20:13:44.317Z,967.44
2023-02-13T20:16:10.718Z,967.48
2023-02-13T20:18:37.156Z,967.43
2023-02-13T20:21:03.583Z,967.38
2023-02-13T20:23:30.018Z,967.41
2023-02-13T20:25:56.415Z,967.43
2023-02-13T20:28:22.757Z,967.38
2023-02-13T20:30:49.385Z,967.36
2023-02-13T20:33:15.850Z,967.33
2023-02-13T20:35:42.166Z,967.34
2023-02-13T20:38:08.563Z,967.31
2023-02-13T20:40:34.959Z,967.35
2023-02-13T20:43:01.388Z,967.28
2023-02-13T20:45:27.781Z,967.22
2023-02-13T20:47:54.108Z,967.14
2023-02-13T20:50:20.517Z,967.17
2023-02-13T20:52:46.897Z,967.28
2023-02-13T20:55:13.227Z,967.25
2023-02-13T20:57:39.607Z,967.20
2023-02-13T21:00:06.003Z,967.21
2023-02-13T21:02:32.351Z,967.24
2023-02-13T21:04:58.717Z,967.17
2023-02-13T21:07:25.038Z,967.18
2023-02-13T21:09:51.390Z,967.11
2023-02-13T21:12:17.785Z,967.07
2023-02-13T21:14:44.092Z,967.12
2023-02-13T21:17:10.508Z,967.06
2023-02-13T21:19:36.864Z,967.03
2023-02-13T21:22:03.233Z,967.03
2023-02-13T21:24:29.883Z,966.94
2023-02-13T21:26:56.223Z,967.01
2023-02-13T21:29:22.534Z,967.06
2023-02-13T21:31:49.129Z,967.08
2023-02-13T21:34:15.441Z,967.04
2023-02-13T21:36:41.786Z,967.06
2023-02-13T21:39:08.397Z,967.05
2023-02-13T21:41:34.742Z,966.99
2023-02-13T21:44:01.155Z,967.01
2023-02-13T21:46:27.604Z,966.95
2023-02-13T21:48:53.945Z,966.92
2023-02-13T21:51:20.270Z,966.94
2023-02-13T21:53:46.809Z,966.90
2023-02-13T21:56:13.182Z,966.96
2023-02-13T21:58:39.538Z,966.89
2023-02-13T22:01:11.451Z,966.82
2023-02-13T22:03:32.238Z,966.77
2023-02-13T22:05:58.611Z,966.83
2023-02-13T22:08:24.997Z,966.70
2023-02-13T22:10:51.402Z,966.69
2023-02-13T22:13:17.714Z,966.77
2023-02-13T22:15:44.056Z,966.72
2023-02-13T22:18:10.394Z,966.70
2023-02-13T22:20:36.877Z,966.63
2023-02-13T22:23:03.202Z,966.67
2023-02-13T22:25:29.547Z,966.59
2023-02-13T22:27:55.944Z,966.56
2023-02-13T22:30:22.304Z,966.58
2023-02-13T22:32:48.638Z,966.63
2023-02-13T22:35:15.004Z,966.56
2023-02-13T22:37:41.363Z,966.55
2023-02-13T22:40:07.709Z,966.63
2023-02-13T22:42:34.100Z,966.58
2023-02-13T22:45:00.480Z,966.53
2023-02-13T22:47:26.812Z,966.51
2023-02-13T22:49:53.197Z,966.52
2023-02-13T22:52:19.556Z,966.55
2023-02-13T22:54:45.937Z,966.47
2023-02-13T22:57:12.364Z,966.42
2023-02-13T22:59:40.189Z,966.44
2023-02-13T23:02:05.149Z,966.48
2023-02-13T23:04:31.556Z,966.48
2023-02-13T23:06:57.821Z,966.37
2023-02-13T23:09:24.232Z,966.40
2023-02-13T23:11:50.588Z,966.43
2023-02-13T23:14:16.934Z,966.44
2023-02-13T23:16:43.317Z,966.48
2023-02-13T23:19:09.672Z,966.42
2023-02-13T23:21:35.995Z,966.45
2023-02-13T23:24:02.338Z,966.50
2023-02-13T23:26:28.705Z,966.38
2023-02-13T23:28:55.046Z,966.47
2023-02-13T23:31:21.540Z,966.41
2023-02-13T23:33:47.753Z,966.33
2023-02-13T23:36:14.075Z,966.38
2023-02-13T23:38:40.403Z,966.38
2023-02-13T23:41:06.993Z,966.38
2023-02-13T23:43:33.314Z,966.35
2023-02-13T23:45:59.708Z,966.39
2023-02-13T23:48:26.058Z,966.44
2023-02-13T23:50:52.408Z,966.44
2023-02-13T23:53:18.738Z,966.50
2023-02-13T23:55:45.057Z,966.55
2023-02-13T23:58:11.435Z,966.57
